sensor_id;sensor_type;location;lat;lon;timestamp;P1;durP1;ratioP1;P2;durP2;ratioP2
41546;SDS011;27271;45.412;10.852;2023-04-24T00:02:42;4.00;;;2.25;;
41546;SDS011;27271;45.412;10.852;2023-04-24T00:06:08;3.78;;;2.85;;
41546;SDS011;27271;45.412;10.852;2023-04-24T00:09:31;4.47;;;2.78;;
41546;SDS011;27271;45.412;10.852;2023-04-24T00:12:53;3.92;;;2.75;;
41546;SDS011;27271;45.412;10.852;2023-04-24T00:16:16;2.47;;;2.28;;
41546;SDS011;27271;45.412;10.852;2023-04-24T00:19:38;3.13;;;2.83;;
41546;SDS011;27271;45.412;10.852;2023-04-24T00:23:00;3.50;;;3.13;;
41546;SDS011;27271;45.412;10.852;2023-04-24T00:26:22;2.05;;;1.50;;
41546;SDS011;27271;45.412;10.852;2023-04-24T00:29:44;5.90;;;3.20;;
41546;SDS011;27271;45.412;10.852;2023-04-24T00:33:06;6.28;;;2.90;;
41546;SDS011;27271;45.412;10.852;2023-04-24T00:36:28;2.22;;;1.88;;
41546;SDS011;27271;45.412;10.852;2023-04-24T00:39:52;3.45;;;2.47;;
41546;SDS011;27271;45.412;10.852;2023-04-24T00:43:14;6.32;;;2.13;;
41546;SDS011;27271;45.412;10.852;2023-04-24T00:46:37;3.65;;;2.10;;
41546;SDS011;27271;45.412;10.852;2023-04-24T00:50:03;2.40;;;1.60;;
41546;SDS011;27271;45.412;10.852;2023-04-24T00:53:26;2.35;;;2.15;;
41546;SDS011;27271;45.412;10.852;2023-04-24T00:56:48;2.97;;;2.22;;
41546;SDS011;27271;45.412;10.852;2023-04-24T01:00:12;2.85;;;1.80;;
41546;SDS011;27271;45.412;10.852;2023-04-24T01:03:36;4.32;;;1.75;;
41546;SDS011;27271;45.412;10.852;2023-04-24T01:06:59;2.50;;;2.28;;
41546;SDS011;27271;45.412;10.852;2023-04-24T01:10:22;3.20;;;1.92;;
41546;SDS011;27271;45.412;10.852;2023-04-24T01:13:47;2.08;;;1.77;;
41546;SDS011;27271;45.412;10.852;2023-04-24T01:17:09;2.42;;;1.90;;
41546;SDS011;27271;45.412;10.852;2023-04-24T01:20:32;3.10;;;1.80;;
41546;SDS011;27271;45.412;10.852;2023-04-24T01:23:55;4.95;;;2.13;;
41546;SDS011;27271;45.412;10.852;2023-04-24T01:27:18;2.90;;;1.42;;
41546;SDS011;27271;45.412;10.852;2023-04-24T01:30:43;6.13;;;2.85;;
41546;SDS011;27271;45.412;10.852;2023-04-24T01:34:05;3.03;;;2.30;;
41546;SDS011;27271;45.412;10.852;2023-04-24T01:37:29;7.78;;;3.88;;
41546;SDS011;27271;45.412;10.852;2023-04-24T01:40:53;5.80;;;2.42;;
41546;SDS011;27271;45.412;10.852;2023-04-24T01:44:15;3.50;;;2.28;;
41546;SDS011;27271;45.412;10.852;2023-04-24T01:47:39;3.35;;;2.60;;
41546;SDS011;27271;45.412;10.852;2023-04-24T01:51:02;4.32;;;2.42;;
41546;SDS011;27271;45.412;10.852;2023-04-24T01:54:24;1.85;;;1.27;;
41546;SDS011;27271;45.412;10.852;2023-04-24T01:57:46;5.10;;;1.95;;
41546;SDS011;27271;45.412;10.852;2023-04-24T02:01:08;6.57;;;3.03;;
41546;SDS011;27271;45.412;10.852;2023-04-24T02:04:36;2.78;;;2.50;;
41546;SDS011;27271;45.412;10.852;2023-04-24T02:07:58;3.03;;;2.75;;
41546;SDS011;27271;45.412;10.852;2023-04-24T02:11:21;3.53;;;1.35;;
41546;SDS011;27271;45.412;10.852;2023-04-24T02:14:45;3.15;;;1.98;;
41546;SDS011;27271;45.412;10.852;2023-04-24T02:18:07;2.92;;;2.08;;
41546;SDS011;27271;45.412;10.852;2023-04-24T02:21:29;1.98;;;1.15;;
41546;SDS011;27271;45.412;10.852;2023-04-24T02:24:52;5.18;;;1.77;;
41546;SDS011;27271;45.412;10.852;2023-04-24T02:28:14;4.25;;;1.60;;
41546;SDS011;27271;45.412;10.852;2023-04-24T02:31:36;2.35;;;1.48;;
41546;SDS011;27271;45.412;10.852;2023-04-24T02:34:58;4.07;;;2.03;;
41546;SDS011;27271;45.412;10.852;2023-04-24T02:38:20;3.42;;;1.65;;
41546;SDS011;27271;45.412;10.852;2023-04-24T02:41:43;2.30;;;1.50;;
41546;SDS011;27271;45.412;10.852;2023-04-24T02:45:05;4.22;;;2.92;;
41546;SDS011;27271;45.412;10.852;2023-04-24T02:48:28;1.48;;;0.90;;
41546;SDS011;27271;45.412;10.852;2023-04-24T02:51:50;3.40;;;2.40;;
41546;SDS011;27271;45.412;10.852;2023-04-24T02:55:12;6.93;;;3.40;;
41546;SDS011;27271;45.412;10.852;2023-04-24T02:58:34;4.00;;;3.25;;
41546;SDS011;27271;45.412;10.852;2023-04-24T03:01:56;4.10;;;2.38;;
41546;SDS011;27271;45.412;10.852;2023-04-24T03:05:18;3.53;;;2.20;;
41546;SDS011;27271;45.412;10.852;2023-04-24T03:08:41;6.95;;;2.47;;
41546;SDS011;27271;45.412;10.852;2023-04-24T03:12:05;4.97;;;3.05;;
41546;SDS011;27271;45.412;10.852;2023-04-24T03:15:27;4.57;;;3.53;;
41546;SDS011;27271;45.412;10.852;2023-04-24T03:18:49;3.80;;;3.05;;
41546;SDS011;27271;45.412;10.852;2023-04-24T03:22:12;3.22;;;2.95;;
41546;SDS011;27271;45.412;10.852;2023-04-24T03:25:35;2.38;;;1.58;;
41546;SDS011;27271;45.412;10.852;2023-04-24T03:28:58;5.93;;;2.80;;
41546;SDS011;27271;45.412;10.852;2023-04-24T03:32:20;3.60;;;3.15;;
41546;SDS011;27271;45.412;10.852;2023-04-24T03:35:43;7.63;;;2.63;;
41546;SDS011;27271;45.412;10.852;2023-04-24T03:39:06;7.25;;;2.83;;
41546;SDS011;27271;45.412;10.852;2023-04-24T03:42:31;8.18;;;2.90;;
41546;SDS011;27271;45.412;10.852;2023-04-24T03:45:53;3.65;;;2.58;;
41546;SDS011;27271;45.412;10.852;2023-04-24T03:49:15;7.43;;;3.80;;
41546;SDS011;27271;45.412;10.852;2023-04-24T03:52:40;5.38;;;3.38;;
41546;SDS011;27271;45.412;10.852;2023-04-24T03:56:07;3.75;;;2.17;;
41546;SDS011;27271;45.412;10.852;2023-04-24T03:59:29;9.05;;;2.70;;
41546;SDS011;27271;45.412;10.852;2023-04-24T04:03:07;3.40;;;2.90;;
41546;SDS011;27271;45.412;10.852;2023-04-24T04:06:30;6.93;;;2.63;;
41546;SDS011;27271;45.412;10.852;2023-04-24T04:09:55;3.97;;;2.80;;
41546;SDS011;27271;45.412;10.852;2023-04-24T04:13:17;4.95;;;2.10;;
41546;SDS011;27271;45.412;10.852;2023-04-24T04:16:40;3.97;;;1.88;;
41546;SDS011;27271;45.412;10.852;2023-04-24T04:20:02;3.75;;;2.55;;
41546;SDS011;27271;45.412;10.852;2023-04-24T04:23:28;2.95;;;1.30;;
41546;SDS011;27271;45.412;10.852;2023-04-24T04:27:11;4.10;;;2.40;;
41546;SDS011;27271;45.412;10.852;2023-04-24T04:31:00;3.85;;;3.47;;
41546;SDS011;27271;45.412;10.852;2023-04-24T04:34:22;4.50;;;2.55;;
41546;SDS011;27271;45.412;10.852;2023-04-24T04:37:45;4.28;;;2.50;;
41546;SDS011;27271;45.412;10.852;2023-04-24T04:41:14;4.57;;;1.92;;
41546;SDS011;27271;45.412;10.852;2023-04-24T04:44:39;2.00;;;1.50;;
41546;SDS011;27271;45.412;10.852;2023-04-24T04:48:05;4.45;;;3.67;;
41546;SDS011;27271;45.412;10.852;2023-04-24T04:51:30;5.72;;;1.77;;
41546;SDS011;27271;45.412;10.852;2023-04-24T04:54:53;2.88;;;1.98;;
41546;SDS011;27271;45.412;10.852;2023-04-24T04:58:19;3.15;;;1.83;;
41546;SDS011;27271;45.412;10.852;2023-04-24T05:01:45;4.18;;;2.60;;
41546;SDS011;27271;45.412;10.852;2023-04-24T05:05:09;2.67;;;1.27;;
41546;SDS011;27271;45.412;10.852;2023-04-24T05:08:31;2.22;;;1.65;;
41546;SDS011;27271;45.412;10.852;2023-04-24T05:11:54;3.40;;;1.50;;
41546;SDS011;27271;45.412;10.852;2023-04-24T05:15:18;2.92;;;1.83;;
41546;SDS011;27271;45.412;10.852;2023-04-24T05:18:40;2.60;;;1.95;;
41546;SDS011;27271;45.412;10.852;2023-04-24T05:22:04;7.85;;;4.55;;
41546;SDS011;27271;45.412;10.852;2023-04-24T05:25:33;1.98;;;1.85;;
41546;SDS011;27271;45.412;10.852;2023-04-24T05:29:01;3.67;;;2.03;;
41546;SDS011;27271;45.412;10.852;2023-04-24T05:32:24;14.25;;;4.82;;
41546;SDS011;27271;45.412;10.852;2023-04-24T05:35:49;3.13;;;2.47;;
41546;SDS011;27271;45.412;10.852;2023-04-24T05:39:11;3.15;;;2.58;;
41546;SDS011;27271;45.412;10.852;2023-04-24T05:42:34;14.15;;;5.28;;
41546;SDS011;27271;45.412;10.852;2023-04-24T05:45:56;5.20;;;4.03;;
41546;SDS011;27271;45.412;10.852;2023-04-24T05:49:18;8.95;;;4.03;;
41546;SDS011;27271;45.412;10.852;2023-04-24T05:52:40;10.07;;;4.55;;
41546;SDS011;27271;45.412;10.852;2023-04-24T05:56:15;6.65;;;3.05;;
41546;SDS011;27271;45.412;10.852;2023-04-24T05:59:38;2.35;;;2.15;;
41546;SDS011;27271;45.412;10.852;2023-04-24T06:03:00;2.88;;;2.58;;
41546;SDS011;27271;45.412;10.852;2023-04-24T06:06:25;3.97;;;2.83;;
41546;SDS011;27271;45.412;10.852;2023-04-24T06:09:51;4.78;;;4.07;;
41546;SDS011;27271;45.412;10.852;2023-04-24T06:13:13;5.20;;;3.05;;
41546;SDS011;27271;45.412;10.852;2023-04-24T06:16:45;5.05;;;1.92;;
41546;SDS011;27271;45.412;10.852;2023-04-24T06:20:25;3.22;;;2.92;;
41546;SDS011;27271;45.412;10.852;2023-04-24T06:23:48;4.03;;;3.35;;
41546;SDS011;27271;45.412;10.852;2023-04-24T06:27:11;1.98;;;1.17;;
41546;SDS011;27271;45.412;10.852;2023-04-24T06:30:35;5.07;;;2.50;;
41546;SDS011;27271;45.412;10.852;2023-04-24T06:33:57;4.43;;;1.58;;
41546;SDS011;27271;45.412;10.852;2023-04-24T06:37:19;5.20;;;3.17;;
41546;SDS011;27271;45.412;10.852;2023-04-24T06:40:42;4.40;;;2.65;;
41546;SDS011;27271;45.412;10.852;2023-04-24T06:44:07;6.82;;;3.05;;
41546;SDS011;27271;45.412;10.852;2023-04-24T06:47:29;8.55;;;3.58;;
41546;SDS011;27271;45.412;10.852;2023-04-24T06:50:51;4.40;;;2.92;;
41546;SDS011;27271;45.412;10.852;2023-04-24T06:54:13;6.40;;;2.05;;
41546;SDS011;27271;45.412;10.852;2023-04-24T06:57:35;2.15;;;1.52;;
41546;SDS011;27271;45.412;10.852;2023-04-24T07:00:57;0.60;;;0.57;;
41546;SDS011;27271;45.412;10.852;2023-04-24T07:04:19;0.88;;;0.68;;
41546;SDS011;27271;45.412;10.852;2023-04-24T07:07:42;1.75;;;0.65;;
41546;SDS011;27271;45.412;10.852;2023-04-24T07:11:04;1.55;;;1.25;;
41546;SDS011;27271;45.412;10.852;2023-04-24T07:14:27;11.52;;;1.38;;
41546;SDS011;27271;45.412;10.852;2023-04-24T07:17:49;0.00;;;0.00;;
41546;SDS011;27271;45.412;10.852;2023-04-24T07:21:11;0.00;;;0.00;;
41546;SDS011;27271;45.412;10.852;2023-04-24T07:24:33;0.10;;;0.10;;
41546;SDS011;27271;45.412;10.852;2023-04-24T07:27:55;0.00;;;0.00;;
41546;SDS011;27271;45.412;10.852;2023-04-24T07:31:18;0.38;;;0.38;;
41546;SDS011;27271;45.412;10.852;2023-04-24T07:34:40;0.00;;;0.00;;
41546;SDS011;27271;45.412;10.852;2023-04-24T07:38:02;0.15;;;0.15;;
41546;SDS011;27271;45.412;10.852;2023-04-24T07:41:24;1.25;;;0.30;;
41546;SDS011;27271;45.412;10.852;2023-04-24T07:44:46;0.00;;;0.00;;
41546;SDS011;27271;45.412;10.852;2023-04-24T07:48:09;0.10;;;0.10;;
41546;SDS011;27271;45.412;10.852;2023-04-24T07:51:32;1.25;;;0.55;;
41546;SDS011;27271;45.412;10.852;2023-04-24T07:54:59;6.40;;;0.90;;
41546;SDS011;27271;45.412;10.852;2023-04-24T07:58:22;0.90;;;0.88;;
41546;SDS011;27271;45.412;10.852;2023-04-24T08:01:44;0.00;;;0.00;;
41546;SDS011;27271;45.412;10.852;2023-04-24T08:05:06;2.35;;;0.63;;
41546;SDS011;27271;45.412;10.852;2023-04-24T08:08:29;0.10;;;0.05;;
41546;SDS011;27271;45.412;10.852;2023-04-24T08:11:51;0.00;;;0.00;;
41546;SDS011;27271;45.412;10.852;2023-04-24T08:15:14;4.28;;;0.85;;
41546;SDS011;27271;45.412;10.852;2023-04-24T08:18:36;0.00;;;0.00;;
41546;SDS011;27271;45.412;10.852;2023-04-24T08:21:58;0.00;;;0.00;;
41546;SDS011;27271;45.412;10.852;2023-04-24T08:25:20;0.00;;;0.00;;
41546;SDS011;27271;45.412;10.852;2023-04-24T08:28:44;0.00;;;0.00;;
41546;SDS011;27271;45.412;10.852;2023-04-24T08:32:06;0.00;;;0.00;;
41546;SDS011;27271;45.412;10.852;2023-04-24T08:35:28;0.00;;;0.00;;
41546;SDS011;27271;45.412;10.852;2023-04-24T08:38:50;0.20;;;0.15;;
41546;SDS011;27271;45.412;10.852;2023-04-24T08:42:13;1.67;;;0.63;;
41546;SDS011;27271;45.412;10.852;2023-04-24T08:45:36;1.75;;;0.30;;
41546;SDS011;27271;45.412;10.852;2023-04-24T08:48:59;0.70;;;0.70;;
41546;SDS011;27271;45.412;10.852;2023-04-24T08:52:22;15.50;;;0.57;;
41546;SDS011;27271;45.412;10.852;2023-04-24T08:55:46;0.00;;;0.00;;
41546;SDS011;27271;45.412;10.852;2023-04-24T08:59:09;0.43;;;0.43;;
41546;SDS011;27271;45.412;10.852;2023-04-24T09:02:32;0.00;;;0.00;;
41546;SDS011;27271;45.412;10.852;2023-04-24T09:05:56;6.93;;;1.50;;
41546;SDS011;27271;45.412;10.852;2023-04-24T09:09:19;2.75;;;0.47;;
41546;SDS011;27271;45.412;10.852;2023-04-24T09:12:42;0.00;;;0.00;;
41546;SDS011;27271;45.412;10.852;2023-04-24T09:16:06;0.10;;;0.10;;
41546;SDS011;27271;45.412;10.852;2023-04-24T09:19:28;0.00;;;0.00;;
41546;SDS011;27271;45.412;10.852;2023-04-24T09:22:53;0.10;;;0.00;;
41546;SDS011;27271;45.412;10.852;2023-04-24T09:26:19;0.25;;;0.15;;
41546;SDS011;27271;45.412;10.852;2023-04-24T09:29:56;0.43;;;0.40;;
41546;SDS011;27271;45.412;10.852;2023-04-24T09:33:19;0.00;;;0.00;;
41546;SDS011;27271;45.412;10.852;2023-04-24T09:36:42;0.05;;;0.05;;
41546;SDS011;27271;45.412;10.852;2023-04-24T09:40:09;0.05;;;0.05;;
41546;SDS011;27271;45.412;10.852;2023-04-24T09:43:34;0.10;;;0.00;;
41546;SDS011;27271;45.412;10.852;2023-04-24T09:46:57;0.40;;;0.40;;
41546;SDS011;27271;45.412;10.852;2023-04-24T09:50:20;0.05;;;0.00;;
41546;SDS011;27271;45.412;10.852;2023-04-24T09:53:46;4.10;;;0.80;;
41546;SDS011;27271;45.412;10.852;2023-04-24T09:57:16;0.20;;;0.20;;
41546;SDS011;27271;45.412;10.852;2023-04-24T10:00:38;1.00;;;0.95;;
41546;SDS011;27271;45.412;10.852;2023-04-24T10:04:00;0.17;;;0.17;;
41546;SDS011;27271;45.412;10.852;2023-04-24T10:07:25;0.25;;;0.20;;
41546;SDS011;27271;45.412;10.852;2023-04-24T10:10:47;1.80;;;1.08;;
41546;SDS011;27271;45.412;10.852;2023-04-24T10:17:57;0.55;;;0.40;;
41546;SDS011;27271;45.412;10.852;2023-04-24T10:21:20;0.52;;;0.52;;
41546;SDS011;27271;45.412;10.852;2023-04-24T10:24:43;0.40;;;0.17;;
41546;SDS011;27271;45.412;10.852;2023-04-24T10:28:06;0.65;;;0.65;;
41546;SDS011;27271;45.412;10.852;2023-04-24T10:31:31;0.65;;;0.65;;
41546;SDS011;27271;45.412;10.852;2023-04-24T10:34:55;1.15;;;0.73;;
41546;SDS011;27271;45.412;10.852;2023-04-24T10:38:21;0.57;;;0.57;;
41546;SDS011;27271;45.412;10.852;2023-04-24T10:41:46;0.55;;;0.50;;
41546;SDS011;27271;45.412;10.852;2023-04-24T10:45:20;0.68;;;0.68;;
41546;SDS011;27271;45.412;10.852;2023-04-24T10:48:43;0.82;;;0.80;;
41546;SDS011;27271;45.412;10.852;2023-04-24T10:52:13;1.83;;;1.00;;
41546;SDS011;27271;45.412;10.852;2023-04-24T10:55:40;0.85;;;0.50;;
41546;SDS011;27271;45.412;10.852;2023-04-24T10:59:04;0.80;;;0.80;;
41546;SDS011;27271;45.412;10.852;2023-04-24T11:02:37;0.50;;;0.40;;
41546;SDS011;27271;45.412;10.852;2023-04-24T11:06:06;0.43;;;0.20;;
41546;SDS011;27271;45.412;10.852;2023-04-24T11:09:32;0.50;;;0.40;;
41546;SDS011;27271;45.412;10.852;2023-04-24T11:12:56;1.05;;;0.95;;
41546;SDS011;27271;45.412;10.852;2023-04-24T11:19:53;0.63;;;0.43;;
41546;SDS011;27271;45.412;10.852;2023-04-24T11:23:39;0.17;;;0.10;;
41546;SDS011;27271;45.412;10.852;2023-04-24T11:30:28;0.43;;;0.43;;
41546;SDS011;27271;45.412;10.852;2023-04-24T11:33:53;0.95;;;0.60;;
41546;SDS011;27271;45.412;10.852;2023-04-24T11:41:44;0.60;;;0.60;;
41546;SDS011;27271;45.412;10.852;2023-04-24T11:45:11;0.50;;;0.50;;
41546;SDS011;27271;45.412;10.852;2023-04-24T11:48:46;1.48;;;0.65;;
41546;SDS011;27271;45.412;10.852;2023-04-24T11:52:08;0.73;;;0.73;;
41546;SDS011;27271;45.412;10.852;2023-04-24T11:55:31;0.57;;;0.57;;
41546;SDS011;27271;45.412;10.852;2023-04-24T11:58:53;0.50;;;0.22;;
41546;SDS011;27271;45.412;10.852;2023-04-24T12:02:25;3.42;;;1.13;;
41546;SDS011;27271;45.412;10.852;2023-04-24T12:05:48;3.60;;;1.25;;
41546;SDS011;27271;45.412;10.852;2023-04-24T12:09:18;0.73;;;0.32;;
41546;SDS011;27271;45.412;10.852;2023-04-24T12:12:46;0.17;;;0.17;;
41546;SDS011;27271;45.412;10.852;2023-04-24T12:16:15;0.95;;;0.10;;
41546;SDS011;27271;45.412;10.852;2023-04-24T12:19:46;0.00;;;0.00;;
41546;SDS011;27271;45.412;10.852;2023-04-24T12:23:10;0.13;;;0.13;;
41546;SDS011;27271;45.412;10.852;2023-04-24T12:26:34;3.40;;;0.75;;
41546;SDS011;27271;45.412;10.852;2023-04-24T12:29:56;0.10;;;0.10;;
41546;SDS011;27271;45.412;10.852;2023-04-24T12:33:20;0.10;;;0.10;;
41546;SDS011;27271;45.412;10.852;2023-04-24T12:36:55;1.65;;;0.82;;
41546;SDS011;27271;45.412;10.852;2023-04-24T12:40:21;0.75;;;0.63;;
41546;SDS011;27271;45.412;10.852;2023-04-24T12:43:52;0.57;;;0.52;;
41546;SDS011;27271;45.412;10.852;2023-04-24T12:47:15;1.05;;;0.88;;
41546;SDS011;27271;45.412;10.852;2023-04-24T12:50:38;0.98;;;0.60;;
41546;SDS011;27271;45.412;10.852;2023-04-24T12:54:01;1.42;;;1.10;;
41546;SDS011;27271;45.412;10.852;2023-04-24T12:57:23;1.15;;;0.73;;
41546;SDS011;27271;45.412;10.852;2023-04-24T13:00:46;1.40;;;0.65;;
41546;SDS011;27271;45.412;10.852;2023-04-24T13:04:09;0.57;;;0.50;;
41546;SDS011;27271;45.412;10.852;2023-04-24T13:07:33;0.47;;;0.40;;
41546;SDS011;27271;45.412;10.852;2023-04-24T13:10:55;6.85;;;1.38;;
41546;SDS011;27271;45.412;10.852;2023-04-24T13:14:17;2.30;;;1.05;;
41546;SDS011;27271;45.412;10.852;2023-04-24T13:17:40;1.38;;;0.90;;
41546;SDS011;27271;45.412;10.852;2023-04-24T13:21:02;0.68;;;0.40;;
41546;SDS011;27271;45.412;10.852;2023-04-24T13:24:24;0.50;;;0.30;;
41546;SDS011;27271;45.412;10.852;2023-04-24T13:27:46;1.33;;;0.30;;
41546;SDS011;27271;45.412;10.852;2023-04-24T13:31:08;1.40;;;0.60;;
41546;SDS011;27271;45.412;10.852;2023-04-24T13:34:30;0.20;;;0.20;;
41546;SDS011;27271;45.412;10.852;2023-04-24T13:37:53;0.38;;;0.30;;
41546;SDS011;27271;45.412;10.852;2023-04-24T13:42:14;0.47;;;0.47;;
41546;SDS011;27271;45.412;10.852;2023-04-24T13:45:36;0.70;;;0.70;;
41546;SDS011;27271;45.412;10.852;2023-04-24T13:48:59;0.63;;;0.63;;
41546;SDS011;27271;45.412;10.852;2023-04-24T13:52:21;0.40;;;0.40;;
41546;SDS011;27271;45.412;10.852;2023-04-24T13:55:43;1.13;;;0.65;;
41546;SDS011;27271;45.412;10.852;2023-04-24T13:59:05;2.38;;;1.23;;
41546;SDS011;27271;45.412;10.852;2023-04-24T14:02:28;0.45;;;0.35;;
41546;SDS011;27271;45.412;10.852;2023-04-24T14:05:50;1.13;;;0.88;;
41546;SDS011;27271;45.412;10.852;2023-04-24T14:09:12;5.38;;;1.10;;
41546;SDS011;27271;45.412;10.852;2023-04-24T14:12:34;0.75;;;0.70;;
41546;SDS011;27271;45.412;10.852;2023-04-24T14:15:56;1.10;;;0.65;;
41546;SDS011;27271;45.412;10.852;2023-04-24T14:19:20;1.10;;;0.70;;
41546;SDS011;27271;45.412;10.852;2023-04-24T14:23:43;1.58;;;1.20;;
41546;SDS011;27271;45.412;10.852;2023-04-24T14:28:05;1.10;;;0.75;;
41546;SDS011;27271;45.412;10.852;2023-04-24T14:31:28;1.42;;;0.88;;
41546;SDS011;27271;45.412;10.852;2023-04-24T14:34:50;1.17;;;1.10;;
41546;SDS011;27271;45.412;10.852;2023-04-24T14:38:12;0.47;;;0.47;;
41546;SDS011;27271;45.412;10.852;2023-04-24T14:41:34;3.83;;;1.30;;
41546;SDS011;27271;45.412;10.852;2023-04-24T14:44:58;1.02;;;0.70;;
41546;SDS011;27271;45.412;10.852;2023-04-24T14:48:20;0.80;;;0.73;;
41546;SDS011;27271;45.412;10.852;2023-04-24T14:51:42;0.80;;;0.80;;
41546;SDS011;27271;45.412;10.852;2023-04-24T14:55:05;1.85;;;1.42;;
41546;SDS011;27271;45.412;10.852;2023-04-24T14:58:28;4.72;;;0.95;;
41546;SDS011;27271;45.412;10.852;2023-04-24T15:01:50;1.55;;;1.27;;
41546;SDS011;27271;45.412;10.852;2023-04-24T15:05:34;0.85;;;0.68;;
41546;SDS011;27271;45.412;10.852;2023-04-24T15:08:57;0.93;;;0.55;;
41546;SDS011;27271;45.412;10.852;2023-04-24T15:12:19;0.70;;;0.70;;
41546;SDS011;27271;45.412;10.852;2023-04-24T15:15:41;2.65;;;1.33;;
41546;SDS011;27271;45.412;10.852;2023-04-24T15:19:03;3.30;;;0.75;;
41546;SDS011;27271;45.412;10.852;2023-04-24T15:22:25;1.55;;;0.82;;
41546;SDS011;27271;45.412;10.852;2023-04-24T15:25:47;1.10;;;1.00;;
41546;SDS011;27271;45.412;10.852;2023-04-24T15:29:10;0.73;;;0.60;;
41546;SDS011;27271;45.412;10.852;2023-04-24T15:32:32;0.30;;;0.10;;
41546;SDS011;27271;45.412;10.852;2023-04-24T15:35:54;0.10;;;0.10;;
41546;SDS011;27271;45.412;10.852;2023-04-24T15:39:16;1.00;;;0.00;;
41546;SDS011;27271;45.412;10.852;2023-04-24T15:42:39;0.10;;;0.00;;
41546;SDS011;27271;45.412;10.852;2023-04-24T15:46:02;0.10;;;0.10;;
41546;SDS011;27271;45.412;10.852;2023-04-24T15:49:25;0.03;;;0.03;;
41546;SDS011;27271;45.412;10.852;2023-04-24T15:52:47;0.10;;;0.10;;
41546;SDS011;27271;45.412;10.852;2023-04-24T15:56:08;0.00;;;0.00;;
41546;SDS011;27271;45.412;10.852;2023-04-24T15:59:31;0.15;;;0.15;;
41546;SDS011;27271;45.412;10.852;2023-04-24T16:02:53;0.00;;;0.00;;
41546;SDS011;27271;45.412;10.852;2023-04-24T16:06:16;0.50;;;0.50;;
41546;SDS011;27271;45.412;10.852;2023-04-24T16:09:38;0.10;;;0.10;;
41546;SDS011;27271;45.412;10.852;2023-04-24T16:13:00;0.00;;;0.00;;
41546;SDS011;27271;45.412;10.852;2023-04-24T16:16:23;0.20;;;0.00;;
41546;SDS011;27271;45.412;10.852;2023-04-24T16:19:45;0.00;;;0.00;;
41546;SDS011;27271;45.412;10.852;2023-04-24T16:23:07;0.40;;;0.08;;
41546;SDS011;27271;45.412;10.852;2023-04-24T16:26:30;0.75;;;0.20;;
41546;SDS011;27271;45.412;10.852;2023-04-24T16:29:52;1.23;;;0.40;;
41546;SDS011;27271;45.412;10.852;2023-04-24T16:33:17;0.05;;;0.00;;
41546;SDS011;27271;45.412;10.852;2023-04-24T16:36:41;0.50;;;0.30;;
41546;SDS011;27271;45.412;10.852;2023-04-24T16:40:05;9.65;;;0.57;;
41546;SDS011;27271;45.412;10.852;2023-04-24T16:43:30;0.82;;;0.57;;
41546;SDS011;27271;45.412;10.852;2023-04-24T16:46:52;1.67;;;0.70;;
41546;SDS011;27271;45.412;10.852;2023-04-24T16:50:15;0.52;;;0.35;;
41546;SDS011;27271;45.412;10.852;2023-04-24T16:53:37;0.95;;;0.43;;
41546;SDS011;27271;45.412;10.852;2023-04-24T16:56:59;2.22;;;1.17;;
41546;SDS011;27271;45.412;10.852;2023-04-24T17:00:21;0.60;;;0.60;;
41546;SDS011;27271;45.412;10.852;2023-04-24T17:03:43;1.60;;;0.88;;
41546;SDS011;27271;45.412;10.852;2023-04-24T17:07:07;1.27;;;0.57;;
41546;SDS011;27271;45.412;10.852;2023-04-24T17:10:29;0.93;;;0.88;;
41546;SDS011;27271;45.412;10.852;2023-04-24T17:13:51;0.63;;;0.63;;
41546;SDS011;27271;45.412;10.852;2023-04-24T17:17:13;2.78;;;0.47;;
41546;SDS011;27271;45.412;10.852;2023-04-24T17:20:36;0.52;;;0.28;;
41546;SDS011;27271;45.412;10.852;2023-04-24T17:23:59;2.13;;;1.27;;
41546;SDS011;27271;45.412;10.852;2023-04-24T17:27:22;0.70;;;0.68;;
41546;SDS011;27271;45.412;10.852;2023-04-24T17:30:45;0.77;;;0.35;;
41546;SDS011;27271;45.412;10.852;2023-04-24T17:34:07;1.75;;;0.60;;
41546;SDS011;27271;45.412;10.852;2023-04-24T17:37:30;1.85;;;1.15;;
41546;SDS011;27271;45.412;10.852;2023-04-24T17:40:54;2.53;;;0.68;;
41546;SDS011;27271;45.412;10.852;2023-04-24T17:44:16;2.40;;;1.23;;
41546;SDS011;27271;45.412;10.852;2023-04-24T17:47:38;1.90;;;1.20;;
41546;SDS011;27271;45.412;10.852;2023-04-24T17:51:00;2.00;;;0.88;;
41546;SDS011;27271;45.412;10.852;2023-04-24T17:54:22;0.35;;;0.35;;
41546;SDS011;27271;45.412;10.852;2023-04-24T17:57:44;0.95;;;0.80;;
41546;SDS011;27271;45.412;10.852;2023-04-24T18:01:06;1.13;;;0.60;;
41546;SDS011;27271;45.412;10.852;2023-04-24T18:04:28;0.98;;;0.80;;
41546;SDS011;27271;45.412;10.852;2023-04-24T18:07:51;1.73;;;1.10;;
41546;SDS011;27271;45.412;10.852;2023-04-24T18:11:13;0.98;;;0.88;;
41546;SDS011;27271;45.412;10.852;2023-04-24T18:14:35;1.08;;;0.77;;
41546;SDS011;27271;45.412;10.852;2023-04-24T18:17:57;2.15;;;1.35;;
41546;SDS011;27271;45.412;10.852;2023-04-24T18:21:20;0.30;;;0.30;;
41546;SDS011;27271;45.412;10.852;2023-04-24T18:24:44;1.27;;;1.08;;
41546;SDS011;27271;45.412;10.852;2023-04-24T18:28:06;0.38;;;0.38;;
41546;SDS011;27271;45.412;10.852;2023-04-24T18:31:28;1.17;;;1.13;;
41546;SDS011;27271;45.412;10.852;2023-04-24T18:34:53;0.73;;;0.73;;
41546;SDS011;27271;45.412;10.852;2023-04-24T18:38:15;1.25;;;0.77;;
41546;SDS011;27271;45.412;10.852;2023-04-24T18:41:37;0.70;;;0.70;;
41546;SDS011;27271;45.412;10.852;2023-04-24T18:44:59;0.22;;;0.22;;
41546;SDS011;27271;45.412;10.852;2023-04-24T18:48:22;0.73;;;0.35;;
41546;SDS011;27271;45.412;10.852;2023-04-24T18:51:44;1.02;;;0.55;;
41546;SDS011;27271;45.412;10.852;2023-04-24T18:55:14;0.20;;;0.20;;
41546;SDS011;27271;45.412;10.852;2023-04-24T18:58:36;0.70;;;0.50;;
41546;SDS011;27271;45.412;10.852;2023-04-24T19:01:58;0.22;;;0.10;;
41546;SDS011;27271;45.412;10.852;2023-04-24T19:05:20;0.90;;;0.40;;
41546;SDS011;27271;45.412;10.852;2023-04-24T19:08:42;0.88;;;0.20;;
41546;SDS011;27271;45.412;10.852;2023-04-24T19:12:05;0.25;;;0.25;;
41546;SDS011;27271;45.412;10.852;2023-04-24T19:15:27;1.35;;;0.90;;
41546;SDS011;27271;45.412;10.852;2023-04-24T19:18:53;0.85;;;0.43;;
41546;SDS011;27271;45.412;10.852;2023-04-24T19:22:16;0.50;;;0.50;;
41546;SDS011;27271;45.412;10.852;2023-04-24T19:25:39;0.03;;;0.03;;
41546;SDS011;27271;45.412;10.852;2023-04-24T19:29:01;0.00;;;0.00;;
41546;SDS011;27271;45.412;10.852;2023-04-24T19:32:23;0.10;;;0.10;;
41546;SDS011;27271;45.412;10.852;2023-04-24T19:35:46;0.15;;;0.15;;
41546;SDS011;27271;45.412;10.852;2023-04-24T19:39:08;0.00;;;0.00;;
41546;SDS011;27271;45.412;10.852;2023-04-24T19:42:30;1.13;;;0.70;;
41546;SDS011;27271;45.412;10.852;2023-04-24T19:46:04;0.10;;;0.10;;
41546;SDS011;27271;45.412;10.852;2023-04-24T19:49:26;0.30;;;0.15;;
41546;SDS011;27271;45.412;10.852;2023-04-24T19:52:48;0.17;;;0.17;;
41546;SDS011;27271;45.412;10.852;2023-04-24T19:56:11;0.38;;;0.38;;
41546;SDS011;27271;45.412;10.852;2023-04-24T19:59:32;0.08;;;0.08;;
41546;SDS011;27271;45.412;10.852;2023-04-24T20:02:56;0.00;;;0.00;;
41546;SDS011;27271;45.412;10.852;2023-04-24T20:06:18;0.00;;;0.00;;
41546;SDS011;27271;45.412;10.852;2023-04-24T20:09:40;0.40;;;0.20;;
41546;SDS011;27271;45.412;10.852;2023-04-24T20:13:09;0.73;;;0.40;;
41546;SDS011;27271;45.412;10.852;2023-04-24T20:17:46;0.20;;;0.20;;
41546;SDS011;27271;45.412;10.852;2023-04-24T20:26:56;0.20;;;0.20;;
41546;SDS011;27271;45.412;10.852;2023-04-24T20:38:36;0.10;;;0.10;;
41546;SDS011;27271;45.412;10.852;2023-04-24T20:42:03;0.85;;;0.22;;